Time;durP1;ratioP1;P1;durP2;ratioP2;P2;SDS_P1;SDS_P2;PMS_P1;PMS_P2;Temp;Humidity;BMP_temperature;BMP_pressure;BME280_temperature;BME280_humidity;BME280_pressure;Samples;Min_cycle;Max_cycle;Signal;HPM_P1;HPM_P2
2023/07/24 00:01:56;;;;;;;4.28;2.42;;;17.90;99.90;;;17.03;100.00;96979.66;4932902;28;20059;-72
2023/07/24 00:04:23;;;;;;;4.50;1.63;;;17.80;99.90;;;17.07;100.00;96967.97;4948342;28;20841;-73
2023/07/24 00:06:50;;;;;;;2.75;1.30;;;17.80;99.90;;;17.09;100.00;96967.88;4946668;28;20094;-73
2023/07/24 00:09:17;;;;;;;3.00;1.67;;;17.80;99.90;;;17.08;100.00;96967.03;4949673;28;20463;-74
2023/07/24 00:11:44;;;;;;;4.20;1.73;;;17.70;99.90;;;17.12;100.00;96967.59;4949876;28;20055;-73
2023/07/24 00:14:11;;;;;;;6.13;1.60;;;17.60;99.90;;;16.95;100.00;96966.31;4950091;28;20058;-74
2023/07/24 00:16:38;;;;;;;4.95;2.40;;;17.60;99.90;;;16.76;100.00;96981.75;4961939;28;20082;-73
2023/07/24 00:19:05;;;;;;;3.80;1.63;;;17.60;99.90;;;16.57;100.00;96983.19;4958919;28;20051;-74
2023/07/24 00:21:32;;;;;;;3.95;2.00;;;17.60;99.90;;;16.66;100.00;96979.84;4947534;28;20075;-74
2023/07/24 00:23:59;;;;;;;3.88;2.00;;;17.60;99.90;;;16.64;100.00;96979.13;4947897;28;20063;-74
2023/07/24 00:26:26;;;;;;;4.35;2.25;;;17.60;99.90;;;16.86;100.00;96974.91;4949613;28;20097;-72
2023/07/24 00:28:54;;;;;;;3.58;1.77;;;17.60;99.90;;;16.96;100.00;96967.16;4947478;28;20055;-73
2023/07/24 00:31:21;;;;;;;2.60;1.30;;;17.70;99.90;;;16.83;100.00;96975.97;4949142;28;20683;-73
2023/07/24 00:33:48;;;;;;;4.68;1.83;;;17.70;99.90;;;16.87;100.00;96969.53;4947922;28;20058;-72
2023/07/24 00:36:15;;;;;;;3.15;1.50;;;17.80;99.90;;;16.90;100.00;96964.06;4949533;28;20082;-74
2023/07/24 00:38:42;;;;;;;4.20;1.73;;;17.70;99.90;;;16.83;100.00;96962.88;4947130;28;20047;-73
2023/07/24 00:41:08;;;;;;;4.05;1.52;;;17.70;99.90;;;16.92;100.00;96966.53;4950981;28;20051;-74
2023/07/24 00:43:36;;;;;;;3.88;1.90;;;17.70;99.90;;;16.83;100.00;96965.50;4945831;28;20750;-74
2023/07/24 00:46:03;;;;;;;4.95;1.52;;;17.70;99.90;;;16.76;100.00;96960.81;4944092;28;20046;-73
2023/07/24 00:48:30;;;;;;;3.38;1.67;;;17.60;99.90;;;16.75;100.00;96957.34;4947592;28;20055;-73
2023/07/24 00:50:57;;;;;;;3.38;1.75;;;17.60;99.90;;;16.71;100.00;96959.38;4948547;28;20369;-74
2023/07/24 00:53:25;;;;;;;5.65;1.92;;;17.50;99.90;;;16.58;100.00;96968.28;4948613;28;20153;-73
2023/07/24 00:55:53;;;;;;;3.58;1.70;;;17.50;99.90;;;16.51;100.00;96960.91;4949476;28;20572;-73
2023/07/24 00:58:21;;;;;;;4.35;1.95;;;17.50;99.90;;;16.59;100.00;96962.13;4933021;28;20587;-73
2023/07/24 01:00:48;;;;;;;4.45;1.67;;;17.40;99.90;;;16.61;100.00;96971.53;4948043;28;20051;-73
2023/07/24 01:03:15;;;;;;;3.00;1.52;;;17.30;99.90;;;16.64;100.00;96970.44;4933224;28;20178;-73
2023/07/24 01:05:42;;;;;;;3.50;1.67;;;17.30;99.90;;;16.73;100.00;96967.94;4946838;28;20476;-73
2023/07/24 01:08:09;;;;;;;3.55;1.50;;;17.30;99.90;;;16.85;100.00;96962.72;4963749;28;20126;-73
2023/07/24 01:10:36;;;;;;;3.35;1.40;;;17.40;99.90;;;16.69;100.00;96922.00;4940250;28;20535;-74
2023/07/24 01:13:22;;;;;;;5.47;2.03;;;17.50;99.90;;;16.42;100.00;96837.66;4955001;28;20196;-73
2023/07/24 01:16:00;;;;;;;3.33;1.25;;;17.50;99.90;;;16.46;100.00;96839.09;4950309;28;20107;-74
2023/07/24 01:18:30;;;;;;;3.78;1.70;;;17.30;99.90;;;16.15;100.00;96857.19;4951535;28;20086;-73
2023/07/24 01:21:00;;;;;;;6.25;1.92;;;17.00;99.90;;;16.22;100.00;96878.50;4956943;28;20058;-73
2023/07/24 01:23:55;;;;;;;4.43;2.35;;;16.80;99.90;;;16.07;100.00;96904.06;4950802;28;20775;-74
2023/07/24 01:26:23;;;;;;;3.38;1.90;;;16.80;99.90;;;16.06;100.00;96926.78;4953844;28;20059;-72
2023/07/24 01:28:51;;;;;;;5.80;2.28;;;16.80;99.90;;;16.27;100.00;96923.50;4952537;28;20051;-73
2023/07/24 01:31:18;;;;;;;4.20;2.08;;;16.90;99.90;;;16.29;100.00;96926.84;4948679;28;20055;-74
2023/07/24 01:33:45;;;;;;;4.55;1.92;;;17.00;99.90;;;16.34;100.00;96929.94;4952688;28;20141;-74
2023/07/24 01:36:16;;;;;;;3.75;1.70;;;17.00;99.90;;;16.35;100.00;96928.13;4948571;28;20166;-74
2023/07/24 01:38:46;;;;;;;4.55;1.70;;;17.10;99.90;;;16.23;100.00;96935.97;4963802;28;20058;-74
2023/07/24 01:41:13;;;;;;;5.93;1.85;;;17.10;99.90;;;16.34;100.00;96936.97;4943520;28;20051;-74
2023/07/24 01:43:40;;;;;;;4.00;1.90;;;17.20;99.90;;;16.41;100.00;96936.34;4954446;28;20607;-74
2023/07/24 01:46:08;;;;;;;5.13;1.63;;;17.10;99.90;;;16.46;100.00;96930.78;4948778;28;20457;-73
2023/07/24 01:48:35;;;;;;;3.65;1.60;;;17.10;99.90;;;16.50;100.00;96933.03;4951942;28;20056;-73
2023/07/24 01:51:02;;;;;;;4.13;1.90;;;17.10;99.90;;;16.45;100.00;96934.34;4965609;28;20052;-73
2023/07/24 01:53:29;;;;;;;4.68;2.00;;;17.10;99.90;;;16.34;100.00;96935.16;4948966;28;20057;-73
2023/07/24 01:55:58;;;;;;;5.47;1.70;;;17.00;99.90;;;16.33;100.00;96936.13;4943776;28;20054;-73
2023/07/24 01:58:25;;;;;;;3.28;1.80;;;16.90;99.90;;;16.01;100.00;96926.31;4953269;28;20150;-73
2023/07/24 02:00:56;;;;;;;3.58;1.77;;;16.90;99.90;;;15.95;100.00;96937.22;4938204;28;20085;-73
2023/07/24 02:03:23;;;;;;;4.00;1.80;;;16.80;99.90;;;16.04;100.00;96931.28;4956673;28;20050;-73
2023/07/24 02:05:51;;;;;;;4.47;1.98;;;16.80;99.90;;;15.87;100.00;96932.56;4954020;28;20127;-73
2023/07/24 02:08:21;;;;;;;6.35;2.15;;;16.70;99.90;;;15.70;100.00;96935.56;4947873;28;20110;-73
2023/07/24 02:10:53;;;;;;;5.20;2.00;;;16.50;99.90;;;15.78;100.00;96930.63;4954454;28;20553;-74
2023/07/24 02:13:20;;;;;;;5.00;2.08;;;16.40;99.90;;;15.62;100.00;96928.28;4954319;28;20082;-73
2023/07/24 02:15:48;;;;;;;4.25;2.13;;;16.30;99.90;;;15.62;100.00;96927.41;4952196;28;20054;-73
2023/07/24 02:18:15;;;;;;;4.75;2.10;;;16.30;99.90;;;15.65;100.00;96933.28;4966397;28;20063;-72
2023/07/24 02:20:50;;;;;;;4.88;2.53;;;16.20;99.90;;;15.57;100.00;96940.00;4955431;28;20059;-72
2023/07/24 02:23:17;;;;;;;5.45;1.90;;;16.10;99.90;;;15.56;100.00;96935.75;4948742;28;20047;-73
2023/07/24 02:25:44;;;;;;;4.95;2.42;;;16.20;99.90;;;15.86;100.00;96938.72;4953245;28;20083;-73
2023/07/24 02:28:12;;;;;;;4.45;1.88;;;16.40;99.90;;;16.09;100.00;96933.56;4941550;28;20134;-74
2023/07/24 02:30:39;;;;;;;3.97;1.95;;;16.60;99.90;;;16.24;100.00;96924.56;4947976;28;20106;-72
2023/07/24 02:33:09;;;;;;;3.25;1.80;;;16.80;99.90;;;16.19;100.00;96929.28;4946676;28;20059;-72
2023/07/24 02:35:41;;;;;;;6.35;2.13;;;16.80;99.90;;;16.13;100.00;96945.47;4950571;28;20531;-73
2023/07/24 02:38:08;;;;;;;4.07;1.90;;;16.80;99.90;;;16.01;100.00;96944.63;4945681;28;20055;-73
2023/07/24 02:40:36;;;;;;;3.50;1.50;;;16.70;99.90;;;15.95;100.00;96949.47;4948239;28;20047;-73
2023/07/24 02:43:03;;;;;;;4.38;1.95;;;16.80;99.90;;;16.00;100.00;96947.34;4928052;28;20047;-74
2023/07/24 02:45:30;;;;;;;5.32;2.03;;;16.80;99.90;;;15.95;100.00;96944.25;4951502;28;20516;-72
2023/07/24 02:47:57;;;;;;;3.13;1.60;;;16.80;99.90;;;15.97;100.00;96947.59;4963323;28;20109;-72
2023/07/24 02:50:24;;;;;;;4.82;2.25;;;16.80;99.90;;;15.97;100.00;96950.22;4950650;28;20771;-73
2023/07/24 02:52:51;;;;;;;6.43;2.25;;;16.60;99.90;;;15.88;100.00;96952.53;4950832;28;20087;-73
2023/07/24 02:55:18;;;;;;;4.35;1.98;;;16.60;99.90;;;15.86;100.00;96945.75;4953658;28;20086;-73
2023/07/24 02:57:45;;;;;;;4.65;1.88;;;16.60;99.90;;;15.97;100.00;96937.94;4951497;28;20579;-72
2023/07/24 03:00:13;;;;;;;3.72;1.85;;;16.70;99.90;;;15.81;100.00;96953.94;4948564;28;20134;-73
2023/07/24 03:02:40;;;;;;;6.88;2.10;;;16.70;99.90;;;15.67;100.00;96941.03;4949144;28;20519;-73
2023/07/24 03:05:08;;;;;;;4.70;2.15;;;16.60;99.90;;;15.56;100.00;96951.44;4950191;28;20047;-73
2023/07/24 03:07:35;;;;;;;4.60;2.40;;;16.50;99.90;;;15.65;100.00;96935.91;4941087;28;20043;-74
2023/07/24 03:10:03;;;;;;;4.28;2.30;;;16.40;99.90;;;15.64;100.00;96933.38;4950327;28;20051;-73
2023/07/24 03:12:30;;;;;;;4.18;1.80;;;16.30;99.90;;;15.55;100.00;96937.50;4951568;28;20563;-74
2023/07/24 03:14:57;;;;;;;8.68;2.65;;;16.10;99.90;;;15.48;100.00;96946.75;4951376;28;20065;-73
2023/07/24 03:17:24;;;;;;;4.95;2.75;;;15.90;99.90;;;15.26;100.00;96950.09;4950973;28;20051;-74
2023/07/24 03:19:51;;;;;;;6.93;2.72;;;15.80;99.90;;;15.14;100.00;96961.41;4950031;28;20062;-74
2023/07/24 03:22:18;;;;;;;4.63;2.47;;;15.70;99.90;;;15.09;100.00;96968.72;4949703;28;20106;-73
2023/07/24 03:24:45;;;;;;;5.40;2.47;;;15.70;99.90;;;14.95;100.00;96959.25;4933532;28;20058;-73
2023/07/24 03:27:13;;;;;;;6.10;2.75;;;15.70;99.90;;;14.99;100.00;96966.78;4949840;28;20110;-73
2023/07/24 03:29:40;;;;;;;4.55;2.17;;;15.70;99.90;;;14.99;100.00;96966.78;4947633;28;20079;-73
2023/07/24 03:32:08;;;;;;;5.95;2.33;;;15.70;99.90;;;14.93;100.00;96969.81;4950843;28;20129;-73
2023/07/24 03:34:35;;;;;;;5.32;2.45;;;15.70;99.90;;;15.13;100.00;96964.97;4948496;28;20113;-74
2023/07/24 03:37:02;;;;;;;5.13;2.30;;;15.80;99.90;;;15.04;100.00;96974.28;4949209;28;20583;-73
2023/07/24 03:39:30;;;;;;;4.40;2.42;;;15.90;99.90;;;15.08;100.00;96982.75;4953288;28;20046;-73
2023/07/24 03:41:57;;;;;;;4.13;2.08;;;15.80;99.90;;;15.15;100.00;96984.00;4948644;28;20138;-73
2023/07/24 03:44:24;;;;;;;5.93;2.65;;;15.80;99.90;;;14.97;100.00;97004.41;4952463;28;20078;-73
2023/07/24 03:46:51;;;;;;;6.68;2.20;;;15.70;99.90;;;14.94;100.00;97008.06;4950606;28;20131;-73
2023/07/24 03:49:18;;;;;;;5.32;2.72;;;15.60;99.90;;;14.88;100.00;97011.09;4948281;28;20520;-73
2023/07/24 03:51:45;;;;;;;4.47;2.70;;;15.60;99.90;;;14.83;100.00;97023.66;4948071;28;20145;-73
2023/07/24 03:54:12;;;;;;;4.55;2.58;;;15.60;99.90;;;14.89;100.00;97030.22;4947556;28;20215;-73
2023/07/24 03:56:39;;;;;;;7.00;2.42;;;15.70;99.90;;;15.01;100.00;97032.84;4952838;28;20185;-73
2023/07/24 03:59:06;;;;;;;4.35;2.53;;;15.70;99.90;;;15.13;100.00;97020.69;4948279;28;20086;-74
2023/07/24 04:01:34;;;;;;;5.28;2.53;;;15.70;99.90;;;15.14;100.00;97032.81;4949865;28;20533;-73
2023/07/24 04:04:01;;;;;;;6.63;2.55;;;15.80;99.90;;;15.11;100.00;97019.13;4952600;28;20598;-73
2023/07/24 04:06:28;;;;;;;4.32;2.10;;;15.90;99.90;;;15.27;100.00;97015.31;4949731;28;20512;-73
2023/07/24 04:08:57;;;;;;;5.63;2.70;;;15.90;99.90;;;15.34;100.00;97015.72;4948834;28;20051;-74
2023/07/24 04:11:24;;;;;;;6.90;2.53;;;15.80;99.90;;;15.26;100.00;97021.50;4951206;28;20091;-74
2023/07/24 04:13:51;;;;;;;4.75;2.90;;;15.80;99.90;;;15.28;100.00;97010.94;4949840;28;20054;-73
2023/07/24 04:16:19;;;;;;;4.43;2.35;;;15.80;99.90;;;15.33;100.00;97021.09;4965728;28;20087;-74
2023/07/24 04:18:46;;;;;;;4.15;2.30;;;15.80;99.90;;;15.22;100.00;97019.22;4948508;28;20168;-73
2023/07/24 04:21:13;;;;;;;6.10;2.97;;;15.70;99.90;;;15.01;100.00;97022.38;4947173;28;20047;-74
2023/07/24 04:23:40;;;;;;;4.78;2.38;;;15.60;99.90;;;15.16;100.00;97019.63;4961124;28;20043;-73
2023/07/24 04:26:07;;;;;;;7.47;2.65;;;15.60;99.90;;;15.33;100.00;97021.09;4952731;28;20914;-73
2023/07/24 04:28:34;;;;;;;4.95;2.92;;;15.70;99.90;;;15.37;100.00;97020.75;4947558;28;20053;-73
2023/07/24 04:31:01;;;;;;;3.58;2.05;;;15.80;99.90;;;15.32;100.00;97027.25;4952971;28;20119;-73
2023/07/24 04:33:29;;;;;;;6.53;2.55;;;15.80;99.90;;;15.47;100.00;97036.63;4965823;28;20066;-73
2023/07/24 04:35:57;;;;;;;3.47;2.10;;;15.90;99.90;;;15.46;100.00;97041.03;4950368;28;20070;-73
2023/07/24 04:38:24;;;;;;;5.53;2.30;;;16.00;99.90;;;15.77;100.00;97038.84;4952658;28;20058;-73
2023/07/24 04:40:51;;;;;;;4.47;2.13;;;16.10;99.90;;;15.90;100.00;97020.47;4955404;28;20075;-74
2023/07/24 04:43:18;;;;;;;4.25;2.10;;;16.30;99.90;;;16.00;100.00;96995.28;4949397;28;20083;-74
2023/07/24 04:45:45;;;;;;;6.32;2.60;;;16.40;99.90;;;15.99;100.00;96979.72;4953502;28;20701;-74
2023/07/24 04:48:12;;;;;;;6.03;2.40;;;16.60;99.90;;;16.10;100.00;96974.50;4951899;28;20109;-73
2023/07/24 04:50:39;;;;;;;3.42;2.08;;;16.70;99.90;;;16.17;100.00;96982.72;4951862;28;20082;-73
2023/07/24 04:53:07;;;;;;;4.85;2.25;;;16.80;99.90;;;16.17;100.00;96988.81;4951273;28;20058;-74
2023/07/24 04:55:34;;;;;;;4.40;2.35;;;16.70;99.90;;;16.39;100.00;96980.16;4951241;28;20047;-73
2023/07/24 04:58:01;;;;;;;5.80;2.75;;;16.80;99.90;;;16.32;100.00;96963.25;4951671;28;20042;-74
2023/07/24 05:00:28;;;;;;;5.72;2.55;;;16.90;99.90;;;16.45;100.00;96971.03;4951553;28;20078;-73
2023/07/24 05:02:55;;;;;;;3.85;2.30;;;17.00;99.90;;;16.56;100.00;96965.81;4949904;28;20083;-73
2023/07/24 05:05:22;;;;;;;5.43;2.55;;;17.00;99.90;;;16.65;100.00;96962.47;4951526;28;20052;-73
2023/07/24 05:07:49;;;;;;;4.80;2.40;;;17.10;99.90;;;16.73;100.00;96960.09;4949446;28;20047;-73
2023/07/24 05:10:16;;;;;;;8.63;3.05;;;17.20;99.90;;;16.76;100.00;96951.16;4952362;28;20146;-73
2023/07/24 05:12:43;;;;;;;5.03;2.20;;;17.30;99.90;;;16.79;100.00;96932.63;4952529;28;20233;-74
2023/07/24 05:15:11;;;;;;;5.75;2.50;;;17.40;99.90;;;16.95;100.00;96934.88;4952273;28;20082;-74
2023/07/24 05:17:38;;;;;;;5.25;2.70;;;17.40;99.90;;;16.99;100.00;96924.97;4954056;28;20507;-73
2023/07/24 05:20:07;;;;;;;3.95;2.17;;;17.40;99.90;;;17.00;100.00;96916.16;4954510;28;20051;-73
2023/07/24 05:22:34;;;;;;;7.10;2.97;;;17.40;99.90;;;17.12;100.00;96912.53;4949090;28;20103;-73
2023/07/24 05:25:01;;;;;;;6.10;2.85;;;17.50;99.90;;;16.98;100.00;96932.00;4954731;28;20050;-74
2023/07/24 05:27:29;;;;;;;5.35;2.58;;;17.30;99.90;;;16.77;100.00;96939.72;4955852;28;20043;-73
2023/07/24 05:29:58;;;;;;;7.00;2.78;;;17.30;99.90;;;16.93;100.00;96934.97;4943488;28;20051;-73
2023/07/24 05:32:25;;;;;;;4.57;2.58;;;17.30;99.90;;;17.05;100.00;96927.94;4929173;28;20051;-73
2023/07/24 05:34:52;;;;;;;9.75;2.58;;;17.30;99.90;;;17.20;100.00;96919.81;4949288;28;20050;-74
2023/07/24 05:37:19;;;;;;;6.70;2.58;;;17.30;99.90;;;17.12;100.00;96923.03;4953786;28;20047;-73
2023/07/24 05:39:46;;;;;;;7.35;2.47;;;17.40;99.90;;;17.14;100.00;96924.56;4951892;28;20117;-73
2023/07/24 05:42:13;;;;;;;5.93;3.00;;;17.40;99.90;;;17.09;100.00;96926.75;4951046;28;20375;-73
2023/07/24 05:44:40;;;;;;;5.53;2.50;;;17.40;99.90;;;17.22;100.00;96913.50;4952458;28;20130;-73
2023/07/24 05:47:07;;;;;;;4.35;2.85;;;17.60;99.90;;;17.28;100.00;96914.78;4944270;28;20043;-71
2023/07/24 05:49:34;;;;;;;5.72;2.83;;;17.70;99.90;;;17.46;100.00;96909.84;4942830;28;20075;-73
2023/07/24 05:52:01;;;;;;;5.28;2.75;;;17.70;99.90;;;17.42;100.00;96905.78;4948086;28;20069;-72
2023/07/24 05:54:28;;;;;;;5.82;2.95;;;17.80;99.90;;;17.47;100.00;96907.09;4950604;28;20543;-72
2023/07/24 05:56:55;;;;;;;6.72;2.90;;;17.80;99.90;;;17.43;100.00;96899.59;4949449;28;20062;-73
2023/07/24 05:59:22;;;;;;;5.40;3.33;;;17.70;99.90;;;17.38;100.00;96901.75;4927698;29;20059;-72
2023/07/24 06:01:49;;;;;;;8.25;3.22;;;17.70;99.90;;;17.50;100.00;96887.66;4946758;28;20051;-74
2023/07/24 06:04:16;;;;;;;6.45;3.42;;;17.80;99.90;;;17.35;100.00;96887.09;4950374;28;20470;-73
2023/07/24 06:06:44;;;;;;;4.78;3.03;;;17.90;99.90;;;17.33;100.00;96896.88;4951241;28;20067;-73
2023/07/24 06:09:11;;;;;;;4.95;3.42;;;17.80;99.90;;;17.35;100.00;96901.03;4952233;28;20114;-73
2023/07/24 06:11:38;;;;;;;7.45;3.35;;;17.80;99.90;;;17.55;100.00;96909.91;4947851;28;20051;-74
2023/07/24 06:14:06;;;;;;;5.10;3.00;;;17.80;99.90;;;17.65;100.00;96903.91;4945531;28;20138;-73
2023/07/24 06:16:33;;;;;;;4.47;2.67;;;17.90;99.90;;;17.71;100.00;96901.63;4951212;28;20059;-73
2023/07/24 06:19:00;;;;;;;5.90;3.88;;;17.90;99.90;;;17.74;100.00;96885.63;4943648;28;20047;-74
2023/07/24 06:21:27;;;;;;;7.57;3.67;;;18.00;99.90;;;17.95;100.00;96879.59;4951400;28;20051;-73
2023/07/24 06:23:54;;;;;;;7.03;3.95;;;18.00;99.90;;;17.85;100.00;96869.00;4949149;28;20142;-74
2023/07/24 06:26:21;;;;;;;6.30;3.90;;;18.00;99.90;;;17.97;100.00;96870.63;4954161;28;20055;-72
2023/07/24 06:28:48;;;;;;;7.25;4.22;;;18.10;99.90;;;18.12;100.00;96865.84;4951766;28;20051;-73
2023/07/24 06:31:14;;;;;;;7.43;4.22;;;18.20;99.90;;;18.12;100.00;96863.22;4955843;28;20059;-73
2023/07/24 06:33:42;;;;;;;6.50;4.63;;;18.40;99.90;;;18.71;100.00;96864.34;4946488;28;20137;-74
2023/07/24 06:36:10;;;;;;;8.98;5.05;;;18.60;99.90;;;18.89;100.00;96847.94;4932025;28;20090;-74
2023/07/24 06:38:37;;;;;;;7.10;4.35;;;18.90;99.90;;;18.91;100.00;96844.22;4943681;28;20471;-73
2023/07/24 06:41:04;;;;;;;8.40;5.32;;;19.00;99.90;;;18.60;100.00;96830.25;4943099;28;20052;-73
2023/07/24 06:43:31;;;;;;;7.22;5.47;;;19.00;99.90;;;18.71;100.00;96829.34;4948616;28;20077;-71
2023/07/24 06:45:58;;;;;;;8.00;5.40;;;19.00;99.90;;;18.67;100.00;96820.88;4947299;28;20123;-74
2023/07/24 06:48:25;;;;;;;7.55;5.32;;;19.10;99.90;;;18.76;100.00;96825.31;4946212;28;20158;-73
2023/07/24 06:50:52;;;;;;;7.07;5.03;;;19.10;99.90;;;18.86;100.00;96829.78;4950092;28;20078;-73
2023/07/24 06:53:20;;;;;;;8.18;5.13;;;19.20;99.90;;;19.10;100.00;96826.81;4949589;28;20472;-74
2023/07/24 06:55:47;;;;;;;9.73;5.55;;;19.30;99.90;;;19.15;100.00;96827.22;4953091;28;20149;-73
2023/07/24 06:58:14;;;;;;;7.13;5.22;;;19.20;99.90;;;19.04;100.00;96825.53;4950284;28;20126;-73
2023/07/24 07:00:41;;;;;;;9.07;5.85;;;19.30;99.90;;;18.86;100.00;96807.00;4941866;28;20051;-73
2023/07/24 07:03:08;;;;;;;9.52;5.75;;;19.30;99.90;;;18.80;100.00;96803.09;4949750;28;20054;-73
2023/07/24 07:05:35;;;;;;;8.40;5.70;;;19.30;99.90;;;18.86;100.00;96809.63;4949348;28;20055;-73
2023/07/24 07:08:02;;;;;;;10.55;6.07;;;19.20;99.90;;;19.04;100.00;96811.56;4949999;28;20472;-74
2023/07/24 07:10:31;;;;;;;9.23;5.32;;;19.30;99.90;;;19.07;100.00;96813.91;4949560;28;20078;-74
2023/07/24 07:12:58;;;;;;;9.00;5.63;;;19.40;99.90;;;19.12;100.00;96802.03;4950072;28;20137;-72
2023/07/24 07:15:25;;;;;;;13.43;5.35;;;19.50;99.90;;;19.00;100.00;96811.03;4952617;28;20086;-72
2023/07/24 07:17:52;;;;;;;8.88;5.43;;;19.30;99.90;;;18.85;100.00;96820.25;4945157;28;20043;-73
2023/07/24 07:20:19;;;;;;;8.48;5.25;;;19.30;99.90;;;18.97;100.00;96825.25;4946617;28;20047;-73
2023/07/24 07:22:46;;;;;;;9.48;5.93;;;19.20;99.90;;;18.90;100.00;96839.91;4947973;28;20129;-71
2023/07/24 07:25:14;;;;;;;11.48;6.65;;;19.20;99.90;;;18.73;100.00;96837.91;4948902;28;20651;-73
2023/07/24 07:27:40;;;;;;;10.93;5.45;;;19.20;99.90;;;18.91;100.00;96848.66;4946680;28;20082;-73
2023/07/24 07:30:08;;;;;;;7.82;5.68;;;19.20;99.90;;;18.81;100.00;96846.81;4949396;28;20083;-72
2023/07/24 07:32:36;;;;;;;8.35;6.07;;;19.20;99.90;;;18.72;100.00;96834.44;4947213;28;20082;-73
2023/07/24 07:35:04;;;;;;;8.32;5.80;;;19.20;99.90;;;18.74;100.00;96845.66;4955272;28;20058;-73
2023/07/24 07:37:31;;;;;;;9.38;5.72;;;19.30;99.90;;;18.79;100.00;96829.50;4942611;28;20046;-74
2023/07/24 07:39:58;;;;;;;8.82;5.20;;;19.30;99.90;;;18.86;100.00;96829.78;4949383;28;20062;-74
2023/07/24 07:42:25;;;;;;;12.70;6.13;;;19.40;99.90;;;18.85;100.00;96841.28;4952904;28;20090;-73
2023/07/24 07:44:52;;;;;;;8.70;5.47;;;19.40;99.90;;;18.87;100.00;96836.75;4963333;28;20059;-71
2023/07/24 07:47:19;;;;;;;9.35;5.85;;;19.40;99.90;;;19.02;100.00;96838.84;4947290;28;20555;-73
2023/07/24 07:49:46;;;;;;;9.32;5.90;;;19.30;99.90;;;18.89;100.00;96827.75;4954870;28;20052;-73
2023/07/24 07:52:17;;;;;;;10.90;5.85;;;19.40;99.90;;;19.08;100.00;96815.59;4950940;28;20055;-73
2023/07/24 07:54:48;;;;;;;7.68;5.30;;;19.50;99.90;;;19.31;100.00;96810.88;4945879;28;20051;-73
2023/07/24 07:57:15;;;;;;;9.38;5.47;;;19.60;99.90;;;19.43;100.00;96801.88;4949389;28;20055;-73
2023/07/24 07:59:43;;;;;;;9.43;5.65;;;19.70;99.90;;;19.72;100.00;96804.50;4949341;28;20047;-74
2023/07/24 08:02:10;;;;;;;9.48;5.60;;;20.10;99.90;;;20.02;100.00;96813.19;4945320;28;20086;-73
2023/07/24 08:04:37;;;;;;;7.38;4.80;;;20.10;99.90;;;20.02;100.00;96814.00;4948893;28;20114;-74
2023/07/24 08:07:04;;;;;;;9.30;4.82;;;20.00;99.90;;;19.91;100.00;96815.97;4947741;28;20059;-72
2023/07/24 08:09:32;;;;;;;7.65;5.10;;;20.10;99.90;;;20.09;100.00;96806.34;4949078;28;20138;-74
2023/07/24 08:11:59;;;;;;;9.43;5.22;;;20.20;99.90;;;20.08;100.00;96801.25;4948615;28;20059;-74
2023/07/24 08:14:26;;;;;;;5.93;4.13;;;20.40;99.90;;;20.29;100.00;96801.84;4951454;28;20059;-73
2023/07/24 08:16:53;;;;;;;7.25;4.45;;;20.50;99.90;;;20.48;100.00;96801.78;4950816;28;20055;-74
2023/07/24 08:19:20;;;;;;;7.60;4.13;;;20.70;99.90;;;20.60;100.00;96786.63;4952209;28;20135;-73
2023/07/24 08:21:47;;;;;;;6.38;3.80;;;20.80;99.90;;;21.04;100.00;96784.13;4950572;28;20140;-73
2023/07/24 08:24:14;;;;;;;6.93;4.28;;;21.10;99.90;;;21.23;100.00;96756.75;4950109;28;20074;-73
2023/07/24 08:26:42;;;;;;;10.75;3.88;;;21.30;99.90;;;21.17;100.00;96722.22;4953086;28;20131;-74
2023/07/24 08:29:09;;;;;;;5.07;3.47;;;21.50;99.90;;;20.87;100.00;96730.38;4951000;28;20106;-74
2023/07/24 08:31:36;;;;;;;5.85;3.58;;;21.40;99.90;;;20.78;100.00;96733.09;4959222;28;20062;-74
2023/07/24 08:34:03;;;;;;;6.25;3.50;;;21.30;99.90;;;20.67;100.00;96720.94;4956968;28;20058;-74
2023/07/24 08:36:30;;;;;;;6.07;3.30;;;21.10;99.90;;;20.43;100.00;96719.66;4953707;28;20499;-73
2023/07/24 08:38:58;;;;;;;6.25;3.80;;;21.00;99.90;;;20.22;100.00;96709.38;4952892;28;20067;-74
2023/07/24 08:41:25;;;;;;;5.82;3.90;;;20.80;99.90;;;20.14;100.00;96695.28;4937613;28;20114;-73
2023/07/24 08:43:53;;;;;;;8.02;3.72;;;20.80;99.90;;;20.25;100.00;96684.53;4948414;28;20051;-73
2023/07/24 08:46:21;;;;;;;5.88;3.55;;;20.80;99.90;;;20.10;100.00;96702.66;4950409;28;20043;-73
2023/07/24 08:48:49;;;;;;;6.47;3.47;;;20.70;99.90;;;20.19;100.00;96696.50;4947094;28;20051;-73
2023/07/24 08:51:18;;;;;;;6.30;3.58;;;20.60;99.90;;;20.21;100.00;96713.00;4934675;28;20069;-73
2023/07/24 08:53:47;;;;;;;6.30;3.55;;;20.60;99.90;;;20.22;100.00;96719.91;4951516;28;20058;-74
2023/07/24 08:56:14;;;;;;;10.27;3.30;;;20.60;99.90;;;20.20;100.00;96726.31;4950574;28;20066;-74
2023/07/24 08:58:42;;;;;;;9.18;3.80;;;20.60;99.90;;;20.25;100.00;96711.75;4945157;28;20531;-72
2023/07/24 09:01:09;;;;;;;7.72;3.75;;;20.70;99.90;;;20.19;100.00;96709.69;4950280;28;20062;-72
2023/07/24 09:03:37;;;;;;;6.43;3.78;;;20.80;99.90;;;20.26;100.00;96700.19;4948988;28;20047;-72
2023/07/24 09:06:07;;;;;;;6.68;3.08;;;20.80;99.90;;;20.45;100.00;96693.16;4951259;28;20070;-71
2023/07/24 09:08:40;;;;;;;6.38;3.60;;;20.80;99.90;;;20.55;100.00;96670.22;4936030;28;20047;-72
2023/07/24 09:11:10;;;;;;;5.78;2.70;;;20.80;99.90;;;20.80;100.00;96667.81;4951813;28;20516;-73
2023/07/24 09:13:41;;;;;;;5.47;3.15;;;20.90;99.90;;;21.18;100.00;96661.38;4949137;28;20075;-72
2023/07/24 09:16:09;;;;;;;6.18;3.30;;;21.10;99.90;;;21.27;100.00;96641.97;4952494;28;20086;-71
2023/07/24 09:18:41;;;;;;;5.47;3.00;;;21.40;99.90;;;21.98;100.00;96626.84;4948777;28;20055;-73
2023/07/24 09:21:13;;;;;;;7.75;3.45;;;21.90;99.90;;;21.81;100.00;96618.03;4950289;28;20055;-74
2023/07/24 09:23:43;;;;;;;5.05;2.88;;;22.20;99.90;;;22.18;100.00;96611.53;4952656;28;20115;-74
2023/07/24 09:26:11;;;;;;;4.57;2.53;;;22.20;99.90;;;21.87;100.00;96633.25;4950818;28;20055;-73
2023/07/24 09:28:38;;;;;;;8.43;3.30;;;22.20;99.90;;;21.59;100.00;96623.88;4928431;28;20090;-74
2023/07/24 09:31:08;;;;;;;7.70;3.10;;;21.70;99.90;;;21.54;100.00;96639.34;4942790;28;20141;-73
2023/07/24 09:33:38;;;;;;;4.95;3.13;;;21.70;99.90;;;21.29;100.00;96647.09;4954385;28;20051;-72
2023/07/24 09:36:08;;;;;;;10.20;3.53;;;21.60;99.90;;;21.21;100.00;96639.09;4946166;28;20059;-73
2023/07/24 09:38:37;;;;;;;5.72;3.08;;;21.50;99.90;;;21.24;100.00;96647.56;4949908;28;20054;-74
2023/07/24 09:41:05;;;;;;;6.53;3.22;;;21.40;99.90;;;21.22;100.00;96660.06;4952905;28;20051;-72
2023/07/24 09:43:35;;;;;;;7.68;3.58;;;21.60;99.90;;;21.65;100.00;96663.69;4950590;28;20039;-73
2023/07/24 09:46:08;;;;;;;5.82;3.00;;;21.80;99.90;;;21.79;100.00;96666.72;4959322;28;20105;-73
2023/07/24 09:48:37;;;;;;;4.97;3.28;;;21.90;99.90;;;21.83;100.00;96673.34;4946966;28;20077;-73
2023/07/24 09:51:13;;;;;;;9.60;2.80;;;21.90;99.90;;;22.03;100.00;96666.00;4954858;28;20142;-73
2023/07/24 09:53:58;;;;;;;5.83;2.80;;;22.10;99.90;;;22.03;100.00;96666.00;4954749;28;20063;-74
2023/07/24 09:56:26;;;;;;;3.85;2.70;;;22.40;99.90;;;22.14;100.00;96661.25;4951346;28;20134;-74
2023/07/24 09:59:12;;;;;;;5.40;3.67;;;22.40;99.90;;;21.86;100.00;96663.28;4952200;28;20085;-74
2023/07/24 10:01:39;;;;;;;5.25;3.00;;;22.60;99.90;;;21.91;100.00;96663.63;4951680;28;20047;-74
2023/07/24 10:04:08;;;;;;;6.78;3.30;;;22.70;99.90;;;21.80;100.00;96669.19;4951645;28;20465;-74
2023/07/24 10:06:35;;;;;;;7.03;3.60;;;22.60;99.90;;;21.95;100.00;96676.53;4950802;28;20047;-73
2023/07/24 10:09:02;;;;;;;7.78;3.55;;;22.60;99.90;;;22.03;100.00;96663.34;4952490;28;20048;-73
2023/07/24 10:11:30;;;;;;;5.53;3.35;;;22.60;99.90;;;21.91;100.00;96668.09;4950564;28;20043;-73
2023/07/24 10:13:58;;;;;;;8.60;3.42;;;22.30;99.90;;;21.74;100.00;96685.69;4950448;28;20134;-72
2023/07/24 10:16:26;;;;;;;8.85;4.13;;;22.20;99.90;;;21.72;100.00;96680.56;4949064;28;20131;-73